Time;durP1;ratioP1;P1;durP2;ratioP2;P2;SDS_P1;SDS_P2;PMS_P1;PMS_P2;Temp;Humidity;BMP_temperature;BMP_pressure;BME280_temperature;BME280_humidity;BME280_pressure;Samples;Min_cycle;Max_cycle;Signal;HPM_P1;HPM_P2
2021/10/09 00:00:33;;;;;;;23.77;13.95;;;14.90;99.90;;;;;;6214637;23;19985;-96
2021/10/09 00:03:07;;;;;;;29.13;16.10;;;14.90;99.90;;;;;;6199304;23;20009;-96
2021/10/09 00:05:37;;;;;;;26.30;15.02;;;14.90;99.90;;;;;;6205928;23;20348;-95
2021/10/09 00:08:47;;;;;;;27.38;15.23;;;14.90;99.90;;;;;;6237849;23;20005;-96
2021/10/09 00:11:19;;;;;;;27.67;15.63;;;14.80;99.90;;;;;;6214343;23;19993;-95
2021/10/09 00:13:46;;;;;;;27.58;14.60;;;14.80;99.90;;;;;;6213987;23;20027;-95
2021/10/09 00:16:17;;;;;;;24.50;15.02;;;14.80;99.90;;;;;;6210923;23;20004;-96
2021/10/09 00:18:52;;;;;;;30.05;15.05;;;14.80;99.90;;;;;;6207965;23;20351;-96
2021/10/09 00:21:28;;;;;;;25.95;14.57;;;14.80;99.90;;;;;;6240715;23;19989;-96
2021/10/09 00:24:00;;;;;;;25.77;14.57;;;14.80;99.90;;;;;;6215828;22;20000;-96
2021/10/09 00:26:41;;;;;;;31.02;16.35;;;14.80;99.90;;;;;;6244606;22;19997;-96
2021/10/09 00:29:09;;;;;;;30.73;16.48;;;14.80;99.90;;;;;;6192237;23;19992;-96
2021/10/09 00:31:50;;;;;;;30.45;14.63;;;14.70;99.90;;;;;;6240759;23;20000;-96
2021/10/09 00:34:50;;;;;;;26.70;14.40;;;14.80;99.90;;;;;;6220468;23;20009;-96
2021/10/09 00:37:22;;;;;;;26.38;16.10;;;14.80;99.90;;;;;;6194132;23;20056;-96
2021/10/09 00:39:59;;;;;;;27.63;16.27;;;14.80;99.90;;;;;;6222498;23;20000;-96
2021/10/09 00:42:25;;;;;;;31.75;17.65;;;14.80;99.90;;;;;;6211027;23;20013;-95
2021/10/09 00:44:52;;;;;;;27.60;15.27;;;14.80;99.90;;;;;;6234774;23;20030;-96
2021/10/09 00:47:21;;;;;;;30.02;16.77;;;14.80;99.90;;;;;;6231992;23;20004;-96
2021/10/09 00:49:47;;;;;;;32.28;16.15;;;14.80;99.90;;;;;;6205663;23;20048;-95
2021/10/09 00:52:13;;;;;;;27.33;15.77;;;14.80;99.90;;;;;;6228905;23;20024;-95
2021/10/09 00:54:44;;;;;;;28.48;15.45;;;14.80;99.90;;;;;;6229804;23;19992;-95
2021/10/09 00:57:12;;;;;;;24.35;14.07;;;14.90;99.90;;;;;;6231643;23;20059;-95
2021/10/09 00:59:40;;;;;;;29.27;15.43;;;14.80;99.90;;;;;;6228793;23;20007;-96
2021/10/09 01:02:07;;;;;;;27.13;14.75;;;14.80;99.90;;;;;;6226506;23;20001;-95
2021/10/09 01:04:34;;;;;;;25.23;14.65;;;14.80;99.90;;;;;;6224609;23;20012;-95
2021/10/09 01:07:06;;;;;;;28.20;15.10;;;14.80;99.90;;;;;;6237868;23;20016;-96
2021/10/09 01:09:32;;;;;;;26.33;15.38;;;14.80;99.90;;;;;;6234931;23;20008;-95
2021/10/09 01:12:03;;;;;;;24.90;14.77;;;14.80;99.90;;;;;;6234859;23;20040;-96
2021/10/09 01:14:32;;;;;;;;;;;14.80;99.90;;;;;;6188977;23;20020;-95
2021/10/09 01:17:01;;;;;;;24.20;14.57;;;14.80;99.90;;;;;;6215450;23;19904;-96
2021/10/09 01:19:31;;;;;;;28.40;15.68;;;14.80;99.90;;;;;;6215431;23;20009;-96
2021/10/09 01:21:59;;;;;;;27.63;14.77;;;14.80;99.90;;;;;;6240545;23;20008;-96
2021/10/09 01:24:36;;;;;;;30.02;16.42;;;14.70;99.90;;;;;;6238448;23;19993;-96
2021/10/09 01:27:07;;;;;;;28.77;16.00;;;14.70;99.90;;;;;;6237945;23;20005;-96
2021/10/09 01:29:36;;;;;;;23.48;15.20;;;14.70;99.90;;;;;;6236320;23;20011;-96
2021/10/09 01:32:26;;;;;;;29.10;16.10;;;14.70;99.90;;;;;;6239884;23;20052;-96
2021/10/09 01:34:53;;;;;;;31.50;16.50;;;14.70;99.90;;;;;;6243444;22;19989;-96
2021/10/09 01:37:21;;;;;;;27.20;15.35;;;14.70;99.90;;;;;;6238774;23;20012;-96
2021/10/09 01:39:51;;;;;;;26.75;15.23;;;14.70;99.90;;;;;;6236866;23;19992;-96
2021/10/09 01:42:22;;;;;;;26.07;14.90;;;14.70;99.90;;;;;;6240875;23;19996;-96
2021/10/09 01:45:08;;;;;;;27.77;15.57;;;14.70;99.90;;;;;;6238363;23;20302;-96
2021/10/09 01:48:00;;;;;;;26.77;15.00;;;14.70;99.90;;;;;;6239078;23;20015;-96
2021/10/09 01:50:32;;;;;;;34.05;15.38;;;14.70;99.90;;;;;;6213280;23;20448;-96
2021/10/09 01:53:11;;;;;;;28.67;14.65;;;14.70;99.90;;;;;;6239535;23;20008;-96
2021/10/09 01:56:11;;;;;;;28.02;14.90;;;14.70;99.90;;;;;;6216835;23;20001;-96
2021/10/09 01:58:39;;;;;;;26.80;15.25;;;14.70;99.90;;;;;;6238668;23;20004;-96
2021/10/09 02:01:06;;;;;;;28.52;15.00;;;14.70;99.90;;;;;;6241033;23;19996;-96
2021/10/09 02:03:36;;;;;;;27.15;15.18;;;14.70;99.90;;;;;;6243561;22;20009;-96
2021/10/09 02:06:22;;;;;;;28.27;15.45;;;14.70;99.90;;;;;;6242548;23;20013;-96
2021/10/09 02:08:51;;;;;;;24.58;14.10;;;14.70;99.90;;;;;;6216496;22;20080;-96
2021/10/09 02:11:19;;;;;;;28.42;15.13;;;14.70;99.90;;;;;;6238338;23;19989;-96
2021/10/09 02:14:21;;;;;;;32.72;15.95;;;14.70;99.90;;;;;;6214804;23;20035;-96
2021/10/09 02:27:22;;;;;;;27.10;15.10;;;14.50;99.90;;;;;;6235372;23;20043;-96
2021/10/09 02:29:49;;;;;;;26.60;15.07;;;14.50;99.90;;;;;;6204991;23;20405;-96
2021/10/09 02:32:17;;;;;;;25.13;13.88;;;14.50;99.90;;;;;;6233809;23;20131;-96
2021/10/09 02:34:44;;;;;;;24.45;13.27;;;14.50;99.90;;;;;;6204589;23;20016;-96
2021/10/09 02:37:11;;;;;;;25.65;14.68;;;14.50;99.90;;;;;;6206471;23;20004;-96
2021/10/09 02:39:40;;;;;;;23.55;13.93;;;14.50;99.90;;;;;;6208355;23;20001;-96
2021/10/09 02:42:06;;;;;;;23.25;13.38;;;14.50;99.90;;;;;;6206228;23;20004;-96
2021/10/09 02:44:34;;;;;;;24.35;13.52;;;14.50;99.90;;;;;;6203990;23;20001;-96
2021/10/09 02:47:00;;;;;;;28.48;14.77;;;14.50;99.90;;;;;;6178384;23;20020;-95
2021/10/09 02:49:29;;;;;;;26.20;14.05;;;14.50;99.90;;;;;;6209078;23;20028;-96
2021/10/09 02:51:59;;;;;;;23.48;14.27;;;14.50;99.90;;;;;;6209743;23;20004;-96
2021/10/09 02:54:25;;;;;;;27.08;14.73;;;14.40;99.90;;;;;;6183796;23;20334;-96
2021/10/09 02:57:01;;;;;;;25.83;14.43;;;14.40;99.90;;;;;;6207583;23;20008;-96
2021/10/09 02:59:32;;;;;;;25.08;13.88;;;14.40;99.90;;;;;;6224452;23;20012;-96
2021/10/09 03:02:03;;;;;;;24.60;13.63;;;14.40;99.90;;;;;;6246197;22;20050;-96
2021/10/09 03:04:33;;;;;;;23.05;13.60;;;14.40;99.90;;;;;;6212675;23;20004;-96
2021/10/09 03:07:02;;;;;;;23.55;12.90;;;14.40;99.90;;;;;;6216190;23;20008;-96
2021/10/09 03:09:45;;;;;;;25.85;12.43;;;14.40;99.90;;;;;;6215767;23;20012;-96
2021/10/09 03:12:25;;;;;;;25.45;13.38;;;14.40;99.90;;;;;;6196890;23;20043;-96
2021/10/09 03:15:02;;;;;;;18.38;11.57;;;14.40;99.90;;;;;;6204333;23;20028;-96
2021/10/09 03:17:29;;;;;;;24.92;14.45;;;14.40;99.90;;;;;;6214984;23;20022;-96
2021/10/09 03:20:00;;;;;;;24.60;13.90;;;14.40;99.90;;;;;;6238614;23;20001;-96
2021/10/09 03:22:26;;;;;;;28.77;16.05;;;14.30;99.90;;;;;;6177887;23;20452;-95
2021/10/09 03:24:52;;;;;;;28.15;14.20;;;14.30;99.90;;;;;;6193301;23;20066;-96
2021/10/09 03:27:18;;;;;;;26.80;15.10;;;14.30;99.90;;;;;;6191781;23;20440;-95
2021/10/09 03:29:44;;;;;;;28.23;14.52;;;14.30;99.90;;;;;;6192149;23;20015;-96
2021/10/09 03:32:09;;;;;;;28.83;14.95;;;14.30;99.90;;;;;;6193541;23;20040;-96
2021/10/09 03:34:36;;;;;;;25.92;14.52;;;14.30;99.90;;;;;;6201739;23;20001;-96
2021/10/09 03:37:03;;;;;;;25.25;13.85;;;14.30;99.90;;;;;;6190496;23;20012;-96
2021/10/09 03:39:30;;;;;;;24.20;13.77;;;14.20;99.90;;;;;;6189794;23;20013;-95
2021/10/09 03:42:07;;;;;;;25.25;14.13;;;14.20;99.90;;;;;;6190508;23;20035;-96
2021/10/09 03:44:39;;;;;;;25.52;13.70;;;14.20;99.90;;;;;;6189458;23;20031;-95
2021/10/09 03:52:38;;;;;;;25.85;14.20;;;14.20;99.90;;;;;;6094872;23;20066;-96
2021/10/09 03:55:06;;;;;;;28.40;14.18;;;14.20;99.90;;;;;;6095737;23;20003;-95
2021/10/09 03:57:32;;;;;;;28.75;15.43;;;14.20;99.90;;;;;;6096888;23;20010;-95
2021/10/09 03:59:58;;;;;;;27.30;14.90;;;14.20;99.90;;;;;;6096588;23;20006;-96
2021/10/09 04:02:23;;;;;;;27.30;15.32;;;14.20;99.90;;;;;;6099088;23;20009;-95
2021/10/09 04:04:49;;;;;;;29.90;15.90;;;14.20;99.90;;;;;;6079333;23;20015;-95
2021/10/09 04:07:15;;;;;;;31.02;16.40;;;14.20;99.90;;;;;;6106405;23;20002;-95
2021/10/09 04:09:41;;;;;;;38.65;20.13;;;14.20;99.90;;;;;;6127546;23;20021;-96
2021/10/09 04:12:07;;;;;;;35.53;17.92;;;14.20;99.90;;;;;;6105402;23;20100;-95
2021/10/09 04:14:32;;;;;;;32.03;17.30;;;14.20;99.90;;;;;;6106041;23;20097;-95
2021/10/09 04:16:58;;;;;;;36.22;18.23;;;14.20;99.90;;;;;;6105293;23;20325;-96
2021/10/09 04:19:24;;;;;;;35.40;16.48;;;14.20;99.90;;;;;;6101838;23;20501;-96
2021/10/09 04:21:50;;;;;;;33.17;15.27;;;14.30;99.90;;;;;;6108757;23;20002;-96
2021/10/09 04:24:20;;;;;;;32.28;16.75;;;14.20;99.90;;;;;;6117698;23;20010;-96
2021/10/09 04:26:48;;;;;;;32.08;16.23;;;14.20;99.90;;;;;;6185189;23;20016;-96
2021/10/09 04:29:14;;;;;;;34.50;16.73;;;14.20;99.90;;;;;;6207809;23;20008;-95
2021/10/09 04:31:40;;;;;;;30.00;15.75;;;14.20;99.90;;;;;;6209854;23;19985;-96
2021/10/09 04:34:10;;;;;;;33.50;16.40;;;14.20;99.90;;;;;;6242165;23;20028;-96
2021/10/09 04:36:36;;;;;;;28.65;16.00;;;14.20;99.90;;;;;;6244519;23;20012;-96
2021/10/09 04:39:04;;;;;;;36.45;16.05;;;14.20;99.90;;;;;;6241459;23;19985;-95
2021/10/09 04:41:31;;;;;;;34.22;16.75;;;14.20;99.90;;;;;;6190348;23;20008;-96
2021/10/09 04:43:59;;;;;;;34.92;17.23;;;14.20;99.90;;;;;;6213349;23;20015;-96
2021/10/09 04:46:26;;;;;;;29.33;15.15;;;14.20;99.90;;;;;;6213323;23;20005;-96
2021/10/09 04:48:57;;;;;;;28.20;15.27;;;14.20;99.90;;;;;;6210237;23;20015;-96
2021/10/09 04:51:29;;;;;;;30.88;15.05;;;14.20;99.90;;;;;;6207119;23;20012;-95
2021/10/09 04:53:55;;;;;;;28.70;15.00;;;14.20;99.90;;;;;;6202558;23;20047;-96
2021/10/09 04:56:21;;;;;;;30.88;15.57;;;14.10;99.90;;;;;;6198991;23;20000;-96
2021/10/09 04:58:48;;;;;;;31.10;15.15;;;14.10;99.90;;;;;;6200080;23;20019;-96
2021/10/09 05:01:16;;;;;;;33.53;16.40;;;14.10;99.90;;;;;;6199432;23;20025;-96
2021/10/09 05:03:42;;;;;;;31.77;14.10;;;14.10;99.90;;;;;;6200232;23;20004;-96
2021/10/09 05:06:08;;;;;;;27.23;13.40;;;14.10;99.90;;;;;;6203533;23;20077;-95
2021/10/09 05:08:33;;;;;;;25.60;14.57;;;14.10;99.90;;;;;;6206578;23;20057;-96
2021/10/09 05:11:01;;;;;;;26.55;14.23;;;14.10;99.90;;;;;;6196841;23;20384;-96
2021/10/09 05:13:27;;;;;;;27.00;13.57;;;14.00;99.90;;;;;;6196032;23;20017;-95
2021/10/09 05:15:53;;;;;;;28.52;15.68;;;14.00;99.90;;;;;;6196356;23;20021;-96
2021/10/09 05:18:19;;;;;;;27.70;15.30;;;14.00;99.90;;;;;;6196150;23;20004;-96
2021/10/09 05:20:45;;;;;;;26.70;14.77;;;14.00;99.90;;;;;;6196250;23;19997;-95
2021/10/09 05:23:11;;;;;;;31.77;15.65;;;14.00;99.90;;;;;;6191826;23;20534;-95
2021/10/09 05:25:38;;;;;;;34.45;16.98;;;14.00;99.90;;;;;;6191113;23;20017;-94
2021/10/09 05:30:30;;;;;;;28.95;14.85;;;14.00;99.90;;;;;;6224731;23;20047;-95
2021/10/09 05:33:10;;;;;;;32.58;17.38;;;14.00;99.90;;;;;;6202824;23;20044;-96
2021/10/09 05:35:39;;;;;;;30.60;16.33;;;14.00;99.90;;;;;;6197812;23;20000;-96
2021/10/09 05:38:05;;;;;;;31.88;16.17;;;14.00;99.90;;;;;;6200349;23;20015;-95
2021/10/09 05:40:31;;;;;;;35.40;16.92;;;14.00;99.90;;;;;;6194064;23;20009;-95
2021/10/09 05:42:57;;;;;;;33.97;18.40;;;14.00;99.90;;;;;;6192080;23;20015;-95
2021/10/09 05:45:23;;;;;;;31.17;16.00;;;14.00;99.90;;;;;;6190836;23;20008;-95
2021/10/09 05:47:50;;;;;;;29.38;14.82;;;14.00;99.90;;;;;;6190912;23;20045;-95
2021/10/09 05:50:17;;;;;;;29.83;15.88;;;14.00;99.90;;;;;;6191923;23;20008;-96
2021/10/09 05:52:49;;;;;;;31.90;16.42;;;14.00;99.90;;;;;;6197529;23;20451;-96
2021/10/09 05:55:30;;;;;;;37.38;16.40;;;14.00;99.90;;;;;;6200674;23;20001;-96
2021/10/09 05:58:09;;;;;;;30.15;15.68;;;14.00;99.90;;;;;;6209989;23;20440;-96
2021/10/09 06:46:31;;;;;;;32.33;16.77;;;14.10;99.90;;;;;;6237663;23;20159;-94
2021/10/09 06:59:56;;;;;;;38.92;17.70;;;14.00;99.90;;;;;;6266891;23;20014;-95
2021/10/09 07:02:22;;;;;;;35.40;17.50;;;14.00;99.90;;;;;;6239802;23;20012;-95
2021/10/09 07:04:51;;;;;;;36.63;17.33;;;14.00;99.90;;;;;;6214812;23;20016;-96
2021/10/09 07:07:19;;;;;;;30.63;15.32;;;14.00;99.90;;;;;;6236932;23;20014;-95
2021/10/09 07:09:45;;;;;;;41.35;17.25;;;14.00;99.90;;;;;;6222846;23;20016;-95
2021/10/09 07:12:14;;;;;;;38.15;16.95;;;14.10;99.90;;;;;;6231781;23;19988;-96
2021/10/09 07:14:43;;;;;;;35.75;17.02;;;14.10;99.90;;;;;;6245022;23;20004;-96
2021/10/09 07:17:09;;;;;;;34.85;17.40;;;14.10;99.90;;;;;;6245999;23;20016;-96
2021/10/09 07:19:38;;;;;;;35.30;17.00;;;14.10;99.90;;;;;;6214292;23;20051;-96
2021/10/09 07:22:03;;;;;;;37.00;17.83;;;14.10;99.90;;;;;;6240217;23;20001;-96
2021/10/09 07:24:33;;;;;;;36.00;17.10;;;14.10;99.90;;;;;;6242804;22;20076;-96
2021/10/09 07:27:02;;;;;;;;;;;14.10;99.90;;;;;;6262467;23;19997;-96
2021/10/09 11:26:52;;;;;;;25.13;11.38;;;16.40;99.90;;;;;;6174603;23;20016;-96
2021/10/09 11:32:03;;;;;;;21.55;10.40;;;16.50;99.90;;;;;;6195923;23;20032;-94
2021/10/09 11:58:47;;;;;;;22.45;8.98;;;16.30;99.90;;;;;;6254270;22;20028;-95
2021/10/09 12:03:55;;;;;;;15.98;7.95;;;16.30;99.90;;;;;;6257969;22;20505;-95
2021/10/09 12:06:21;;;;;;;19.50;9.57;;;16.30;99.90;;;;;;6224334;23;20137;-95
2021/10/09 12:08:54;;;;;;;19.40;9.38;;;16.30;99.90;;;;;;6248654;23;20004;-95
2021/10/09 12:11:23;;;;;;;16.33;7.57;;;16.30;99.90;;;;;;6260602;22;20050;-94
2021/10/09 12:13:53;;;;;;;19.42;8.13;;;16.30;99.90;;;;;;6252075;23;20004;-95
2021/10/09 12:16:25;;;;;;;14.10;7.95;;;16.30;99.90;;;;;;6223631;23;20004;-94
2021/10/09 12:18:56;;;;;;;18.50;8.55;;;16.30;99.90;;;;;;6224676;23;20004;-94
2021/10/09 12:21:24;;;;;;;12.57;6.57;;;16.30;99.90;;;;;;6250619;23;20008;-96
2021/10/09 12:23:51;;;;;;;15.25;8.13;;;16.30;99.90;;;;;;6223427;23;20000;-95
2021/10/09 12:26:18;;;;;;;18.48;8.98;;;16.40;99.90;;;;;;6248499;23;20443;-95
2021/10/09 12:29:06;;;;;;;17.23;7.75;;;16.30;99.90;;;;;;6248039;23;20000;-95
2021/10/09 12:31:34;;;;;;;15.40;7.78;;;16.40;99.90;;;;;;6221770;23;20031;-95
2021/10/09 12:34:00;;;;;;;18.45;8.35;;;16.30;99.90;;;;;;6222526;23;20119;-96
2021/10/09 12:36:37;;;;;;;18.48;7.57;;;16.30;99.90;;;;;;6222967;23;19997;-95
2021/10/09 12:39:27;;;;;;;16.95;8.45;;;16.30;99.90;;;;;;6250361;23;20328;-96
2021/10/09 12:41:54;;;;;;;15.15;8.80;;;16.40;99.90;;;;;;6223312;23;20035;-96
2021/10/09 12:44:21;;;;;;;16.17;7.78;;;16.40;99.90;;;;;;6222947;23;20015;-95
2021/10/09 12:46:48;;;;;;;16.85;8.57;;;16.40;99.90;;;;;;6250337;23;20000;-96
2021/10/09 12:49:14;;;;;;;17.83;9.73;;;16.40;99.90;;;;;;6228220;23;20005;-96
2021/10/09 12:51:40;;;;;;;15.77;8.13;;;16.40;99.90;;;;;;6241145;23;20031;-95
2021/10/09 12:54:07;;;;;;;14.27;7.75;;;16.40;99.90;;;;;;6224112;23;20000;-95
2021/10/09 12:56:34;;;;;;;11.38;6.60;;;16.40;99.90;;;;;;6223544;23;20007;-96
2021/10/09 12:59:01;;;;;;;11.68;6.53;;;16.40;99.90;;;;;;6221867;23;20015;-96
2021/10/09 13:01:27;;;;;;;15.95;8.27;;;16.30;99.90;;;;;;6251644;23;20000;-96
2021/10/09 13:03:53;;;;;;;13.95;7.65;;;16.30;99.90;;;;;;6256038;23;20102;-96
2021/10/09 13:06:24;;;;;;;14.85;8.13;;;16.30;99.90;;;;;;6239912;23;20004;-96
2021/10/09 13:08:52;;;;;;;13.68;8.13;;;16.30;99.90;;;;;;6239109;23;19996;-96
2021/10/09 13:11:26;;;;;;;18.03;7.77;;;16.20;99.90;;;;;;6233749;23;20051;-95
2021/10/09 13:13:57;;;;;;;18.83;9.45;;;16.10;99.90;;;;;;6231538;23;20274;-94
2021/10/09 13:16:26;;;;;;;14.23;8.00;;;16.10;99.90;;;;;;6235847;23;20000;-94
2021/10/09 13:18:52;;;;;;;15.30;8.57;;;16.00;99.90;;;;;;6237828;23;20040;-96
2021/10/09 13:21:21;;;;;;;17.65;8.52;;;16.00;99.90;;;;;;6237369;23;20008;-95
2021/10/09 13:23:47;;;;;;;18.42;8.32;;;16.00;99.90;;;;;;6236369;23;20046;-95
2021/10/09 13:26:14;;;;;;;19.08;8.80;;;16.00;99.90;;;;;;6237693;23;20007;-95
2021/10/09 13:28:40;;;;;;;18.27;8.93;;;16.10;99.90;;;;;;6237114;23;20008;-95
2021/10/09 13:31:06;;;;;;;15.88;9.02;;;16.00;99.90;;;;;;6239160;23;20011;-95
2021/10/09 13:34:01;;;;;;;22.88;10.45;;;16.00;99.90;;;;;;6239961;23;20071;-96
2021/10/09 13:36:47;;;;;;;;;;;;;;;;;;;;;
2021/10/09 13:39:25;;;;;;;25.08;11.57;;;16.00;99.90;;;;;;6258483;23;20060;-96
2021/10/09 13:42:00;;;;;;;23.15;11.10;;;16.00;99.90;;;;;;6242804;23;20004;-96
2021/10/09 13:44:30;;;;;;;22.75;11.38;;;16.10;99.90;;;;;;6219230;23;20047;-96
2021/10/09 13:47:05;;;;;;;22.77;10.95;;;16.10;99.90;;;;;;6241411;23;20004;-96
2021/10/09 13:49:34;;;;;;;20.67;10.73;;;16.10;99.90;;;;;;6243564;23;20497;-95
2021/10/09 13:52:09;;;;;;;21.98;13.10;;;16.10;99.90;;;;;;6243369;23;20008;-96
2021/10/09 13:54:38;;;;;;;18.73;10.60;;;16.20;99.90;;;;;;6243167;23;20027;-96
2021/10/09 13:57:06;;;;;;;22.08;10.35;;;16.20;99.90;;;;;;6238144;23;20447;-96
2021/10/09 13:59:36;;;;;;;20.13;10.95;;;16.20;99.90;;;;;;6239193;23;20063;-96
2021/10/09 14:02:03;;;;;;;23.92;11.20;;;16.30;99.90;;;;;;6241022;23;20004;-96
2021/10/09 14:04:49;;;;;;;19.83;11.80;;;16.40;99.90;;;;;;6245753;23;20000;-96
2021/10/09 14:07:26;;;;;;;19.88;10.88;;;16.30;99.90;;;;;;6220347;23;20008;-95
2021/10/09 14:10:03;;;;;;;19.48;11.43;;;16.40;99.90;;;;;;6220338;23;20013;-96
2021/10/09 14:12:36;;;;;;;23.88;11.90;;;16.40;99.90;;;;;;6219746;23;20009;-96
2021/10/09 14:15:07;;;;;;;21.33;11.85;;;16.40;99.90;;;;;;6246623;23;20000;-95
2021/10/09 14:18:00;;;;;;;;;;;16.40;99.90;;;;;;6212100;23;20004;-96
2021/10/09 14:20:28;;;;;;;21.42;11.80;;;16.40;99.90;;;;;;6271196;23;19903;-95
2021/10/09 14:23:02;;;;;;;20.75;11.32;;;16.30;99.90;;;;;;6195619;23;20094;-96
2021/10/09 14:25:34;;;;;;;21.33;10.98;;;16.30;99.90;;;;;;6242283;22;20000;-96
2021/10/09 14:28:30;;;;;;;21.13;11.52;;;16.30;99.90;;;;;;6200526;23;20004;-96
2021/10/09 14:31:08;;;;;;;23.10;11.05;;;16.30;99.90;;;;;;6221652;23;20034;-96
2021/10/09 14:34:22;;;;;;;19.35;10.10;;;16.40;99.90;;;;;;6270728;23;20031;-96
2021/10/09 14:37:01;;;;;;;17.90;10.40;;;16.40;99.90;;;;;;6241100;23;20004;-96
2021/10/09 14:39:32;;;;;;;19.48;10.82;;;16.50;99.90;;;;;;6240894;23;20004;-95
2021/10/09 14:42:00;;;;;;;19.65;10.55;;;16.50;99.90;;;;;;6271578;23;20019;-95
2021/10/09 14:44:29;;;;;;;20.38;11.13;;;16.60;99.90;;;;;;6244903;23;20034;-96
2021/10/09 14:49:44;;;;;;;16.90;9.50;;;16.60;99.90;;;;;;6240711;23;20008;-96
2021/10/09 15:18:21;;;;;;;19.85;9.63;;;16.80;99.90;;;;;;6217256;23;20011;-95
2021/10/09 15:20:48;;;;;;;18.35;9.57;;;16.80;99.90;;;;;;6233978;23;20015;-95
2021/10/09 17:55:27;;;;;;;10.15;5.57;;;16.20;99.90;;;;;;6267416;22;20107;-95
2021/10/09 18:00:29;;;;;;;10.50;5.32;;;16.10;99.90;;;;;;6229869;23;20216;-94
2021/10/09 18:03:00;;;;;;;9.45;5.28;;;16.10;99.90;;;;;;6216088;23;19997;-95
2021/10/09 18:08:06;;;;;;;7.00;5.07;;;16.00;99.90;;;;;;6263391;22;20027;-95
2021/10/09 18:10:32;;;;;;;10.65;5.88;;;16.00;99.90;;;;;;6272208;23;20020;-95
2021/10/09 18:12:58;;;;;;;19.17;10.68;;;16.00;99.90;;;;;;6240699;23;20008;-94
2021/10/09 18:18:02;;;;;;;16.10;7.95;;;16.00;99.90;;;;;;6225396;22;20024;-96
2021/10/09 18:20:29;;;;;;;12.48;8.05;;;15.90;99.90;;;;;;6235642;23;20088;-96
2021/10/09 18:22:55;;;;;;;17.73;9.15;;;16.00;99.90;;;;;;6240599;23;20030;-96
2021/10/09 18:33:59;;;;;;;24.60;12.85;;;15.90;99.90;;;;;;6211136;23;20015;-96
2021/10/09 18:39:00;;;;;;;18.70;11.05;;;15.80;99.90;;;;;;6202277;23;20029;-95
2021/10/09 18:41:26;;;;;;;26.90;14.50;;;15.80;99.90;;;;;;6209137;23;20065;-95
2021/10/09 18:43:52;;;;;;;25.38;14.15;;;15.80;99.90;;;;;;6211550;23;20008;-96
2021/10/09 23:15:09;;;;;;;21.55;12.90;;;13.70;99.90;;;;;;6240176;23;20069;-96
2021/10/09 23:17:35;;;;;;;24.70;13.65;;;13.80;99.90;;;;;;6206014;23;20016;-96
2021/10/09 23:22:40;;;;;;;27.48;14.30;;;13.70;99.90;;;;;;6224581;22;20062;-96
2021/10/09 23:25:06;;;;;;;24.90;14.27;;;13.70;99.90;;;;;;6242314;23;19992;-95
2021/10/09 23:27:33;;;;;;;20.90;12.48;;;13.70;99.90;;;;;;6241024;23;20008;-96
2021/10/09 23:30:06;;;;;;;25.50;13.38;;;13.70;99.90;;;;;;6261703;23;20003;-96
2021/10/09 23:35:12;;;;;;;24.25;13.15;;;13.80;99.90;;;;;;6180352;23;20016;-96
